首页
METAR-TAF:

METAR-TAF

机场 :

Diepholz, 德国

纬度: 52-35N, 经度: 008-21E, 海拔: 39米

当前天气观测

该预报发布于13小时和32分钟前的14:20 UTC
风速10节,风向西转西南
温度 17°C
湿度 52%
气压 1025 hPa
能见度10公里或以上
少量云层高于5000英尺
多云层高于30000英尺

METAR: ETND 251420Z 24010KT 9999 FEW050 BKN300 17/07 Q1025 BLU+

时间: 04:52 (03:52 UTC)

预报

该预报发布于16小时和22分钟前的11:30 UTC
预报有效从25日的 12点(UTC)到 25日的 21点(UTC)
风速9节,风向西南
能见度10公里或以上
散云层高于5000英尺
多云层高于32000英尺

TAF: ETND 251130Z 2512/2521 23009KT 9999 NSW SCT050 BKN320 BY ETGL

超过4000个机场的气象观测和天气预报(METAR&TAF报告)。

可查询的气象台以黄色和红色小点在地图上表示。

将鼠标移到小点上方,可查看气象台名称。

然后点击查看天气观测和预报。

如需切换地图:点击带黑十字的绿色按钮放大地图;点击带横线的绿色按钮缩小地图;或者点击绿色箭头查看邻近地区的地图。


METAR-TAF: